sensor_id;sensor_type;location;lat;lon;timestamp;P1;durP1;ratioP1;P2;durP2;ratioP2
74421;SDS011;62856;51.446;8.360;2022-11-18T00:00:32;2.63;;;0.50;;
74421;SDS011;62856;51.446;8.360;2022-11-18T00:02:58;3.53;;;0.70;;
74421;SDS011;62856;51.446;8.360;2022-11-18T00:05:23;2.20;;;0.63;;
74421;SDS011;62856;51.446;8.360;2022-11-18T00:07:48;2.17;;;0.40;;
74421;SDS011;62856;51.446;8.360;2022-11-18T00:10:13;2.47;;;0.60;;
74421;SDS011;62856;51.446;8.360;2022-11-18T00:12:39;1.05;;;0.38;;
74421;SDS011;62856;51.446;8.360;2022-11-18T00:15:23;2.35;;;0.50;;
74421;SDS011;62856;51.446;8.360;2022-11-18T00:17:48;1.80;;;0.50;;
74421;SDS011;62856;51.446;8.360;2022-11-18T00:20:13;0.47;;;0.35;;
74421;SDS011;62856;51.446;8.360;2022-11-18T00:22:39;1.52;;;0.40;;
74421;SDS011;62856;51.446;8.360;2022-11-18T00:25:04;1.13;;;0.30;;
74421;SDS011;62856;51.446;8.360;2022-11-18T00:27:30;2.47;;;0.43;;
74421;SDS011;62856;51.446;8.360;2022-11-18T00:29:55;1.98;;;0.98;;
74421;SDS011;62856;51.446;8.360;2022-11-18T00:32:21;2.92;;;0.77;;
74421;SDS011;62856;51.446;8.360;2022-11-18T00:34:46;2.35;;;0.68;;
74421;SDS011;62856;51.446;8.360;2022-11-18T00:37:11;1.60;;;0.60;;
74421;SDS011;62856;51.446;8.360;2022-11-18T00:39:37;1.52;;;0.50;;
74421;SDS011;62856;51.446;8.360;2022-11-18T00:42:02;2.93;;;0.60;;
74421;SDS011;62856;51.446;8.360;2022-11-18T00:44:47;1.70;;;0.63;;
74421;SDS011;62856;51.446;8.360;2022-11-18T00:47:12;1.37;;;0.40;;
74421;SDS011;62856;51.446;8.360;2022-11-18T00:49:37;3.20;;;0.50;;
74421;SDS011;62856;51.446;8.360;2022-11-18T00:52:03;1.45;;;0.30;;
74421;SDS011;62856;51.446;8.360;2022-11-18T00:54:29;2.72;;;0.40;;
74421;SDS011;62856;51.446;8.360;2022-11-18T00:56:54;2.60;;;0.45;;
74421;SDS011;62856;51.446;8.360;2022-11-18T00:59:20;2.13;;;0.55;;
74421;SDS011;62856;51.446;8.360;2022-11-18T01:01:45;1.20;;;0.40;;
74421;SDS011;62856;51.446;8.360;2022-11-18T01:04:10;1.23;;;0.40;;
74421;SDS011;62856;51.446;8.360;2022-11-18T01:06:36;1.15;;;0.50;;
74421;SDS011;62856;51.446;8.360;2022-11-18T01:09:01;0.43;;;0.17;;
74421;SDS011;62856;51.446;8.360;2022-11-18T01:11:26;1.20;;;0.37;;
74421;SDS011;62856;51.446;8.360;2022-11-18T01:14:10;2.92;;;0.50;;
74421;SDS011;62856;51.446;8.360;2022-11-18T01:16:35;1.45;;;0.38;;
74421;SDS011;62856;51.446;8.360;2022-11-18T01:19:00;0.70;;;0.30;;
74421;SDS011;62856;51.446;8.360;2022-11-18T01:21:27;1.90;;;0.43;;
74421;SDS011;62856;51.446;8.360;2022-11-18T01:23:53;0.25;;;0.10;;
74421;SDS011;62856;51.446;8.360;2022-11-18T01:26:18;0.57;;;0.30;;
74421;SDS011;62856;51.446;8.360;2022-11-18T01:28:43;0.80;;;0.30;;
74421;SDS011;62856;51.446;8.360;2022-11-18T01:31:13;0.08;;;0.08;;
74421;SDS011;62856;51.446;8.360;2022-11-18T01:33:43;0.60;;;0.30;;
74421;SDS011;62856;51.446;8.360;2022-11-18T01:36:16;1.38;;;0.30;;
74421;SDS011;62856;51.446;8.360;2022-11-18T01:38:43;1.30;;;0.13;;
74421;SDS011;62856;51.446;8.360;2022-11-18T01:41:08;1.75;;;0.40;;
74421;SDS011;62856;51.446;8.360;2022-11-18T01:43:47;0.93;;;0.25;;
74421;SDS011;62856;51.446;8.360;2022-11-18T01:46:15;0.20;;;0.20;;
74421;SDS011;62856;51.446;8.360;2022-11-18T01:48:40;0.88;;;0.32;;
74421;SDS011;62856;51.446;8.360;2022-11-18T01:51:08;2.17;;;0.50;;
74421;SDS011;62856;51.446;8.360;2022-11-18T01:53:42;2.33;;;0.63;;
74421;SDS011;62856;51.446;8.360;2022-11-18T01:56:20;0.22;;;0.22;;
74421;SDS011;62856;51.446;8.360;2022-11-18T01:59:00;1.05;;;0.30;;
74421;SDS011;62856;51.446;8.360;2022-11-18T02:01:30;0.88;;;0.30;;
74421;SDS011;62856;51.446;8.360;2022-11-18T02:03:55;0.75;;;0.30;;
74421;SDS011;62856;51.446;8.360;2022-11-18T02:06:21;0.82;;;0.20;;
74421;SDS011;62856;51.446;8.360;2022-11-18T02:08:46;0.73;;;0.25;;
74421;SDS011;62856;51.446;8.360;2022-11-18T02:11:14;1.63;;;0.20;;
74421;SDS011;62856;51.446;8.360;2022-11-18T02:19:30;0.47;;;0.20;;
74421;SDS011;62856;51.446;8.360;2022-11-18T02:27:31;1.23;;;0.32;;
74421;SDS011;62856;51.446;8.360;2022-11-18T02:30:18;0.45;;;0.20;;
74421;SDS011;62856;51.446;8.360;2022-11-18T02:32:53;0.85;;;0.20;;
74421;SDS011;62856;51.446;8.360;2022-11-18T02:37:57;0.32;;;0.15;;
74421;SDS011;62856;51.446;8.360;2022-11-18T02:42:59;1.17;;;0.30;;
74421;SDS011;62856;51.446;8.360;2022-11-18T02:45:29;0.35;;;0.20;;
74421;SDS011;62856;51.446;8.360;2022-11-18T02:47:56;2.25;;;0.43;;
74421;SDS011;62856;51.446;8.360;2022-11-18T02:50:27;1.60;;;0.40;;
74421;SDS011;62856;51.446;8.360;2022-11-18T02:52:57;1.08;;;0.30;;
74421;SDS011;62856;51.446;8.360;2022-11-18T02:55:26;0.90;;;0.17;;
74421;SDS011;62856;51.446;8.360;2022-11-18T02:57:54;2.15;;;0.50;;
74421;SDS011;62856;51.446;8.360;2022-11-18T03:00:21;1.75;;;0.35;;
74421;SDS011;62856;51.446;8.360;2022-11-18T03:02:47;0.77;;;0.30;;
74421;SDS011;62856;51.446;8.360;2022-11-18T03:05:18;1.02;;;0.40;;
74421;SDS011;62856;51.446;8.360;2022-11-18T03:07:53;0.20;;;0.10;;
74421;SDS011;62856;51.446;8.360;2022-11-18T03:10:22;0.73;;;0.20;;
74421;SDS011;62856;51.446;8.360;2022-11-18T03:12:56;1.33;;;0.30;;
74421;SDS011;62856;51.446;8.360;2022-11-18T03:15:34;0.57;;;0.20;;
74421;SDS011;62856;51.446;8.360;2022-11-18T03:21:10;1.02;;;0.35;;
74421;SDS011;62856;51.446;8.360;2022-11-18T03:26:53;2.55;;;0.75;;
74421;SDS011;62856;51.446;8.360;2022-11-18T03:29:29;0.85;;;0.30;;
74421;SDS011;62856;51.446;8.360;2022-11-18T03:32:05;1.30;;;0.40;;
74421;SDS011;62856;51.446;8.360;2022-11-18T03:34:39;1.38;;;0.30;;
74421;SDS011;62856;51.446;8.360;2022-11-18T03:37:10;2.00;;;0.50;;
74421;SDS011;62856;51.446;8.360;2022-11-18T03:39:42;1.23;;;0.32;;
74421;SDS011;62856;51.446;8.360;2022-11-18T03:44:48;1.60;;;0.35;;
74421;SDS011;62856;51.446;8.360;2022-11-18T03:47:18;1.00;;;0.52;;
74421;SDS011;62856;51.446;8.360;2022-11-18T03:49:55;0.50;;;0.20;;
74421;SDS011;62856;51.446;8.360;2022-11-18T03:52:30;1.88;;;0.40;;
74421;SDS011;62856;51.446;8.360;2022-11-18T03:55:00;0.28;;;0.15;;
74421;SDS011;62856;51.446;8.360;2022-11-18T03:57:36;0.45;;;0.28;;
74421;SDS011;62856;51.446;8.360;2022-11-18T04:00:05;0.60;;;0.32;;
74421;SDS011;62856;51.446;8.360;2022-11-18T04:02:33;0.40;;;0.10;;
74421;SDS011;62856;51.446;8.360;2022-11-18T04:04:59;1.02;;;0.35;;
74421;SDS011;62856;51.446;8.360;2022-11-18T04:10:45;0.65;;;0.20;;
74421;SDS011;62856;51.446;8.360;2022-11-18T04:13:14;0.38;;;0.10;;
74421;SDS011;62856;51.446;8.360;2022-11-18T04:15:56;0.28;;;0.22;;
74421;SDS011;62856;51.446;8.360;2022-11-18T04:18:21;1.05;;;0.30;;
74421;SDS011;62856;51.446;8.360;2022-11-18T04:20:47;0.50;;;0.30;;
74421;SDS011;62856;51.446;8.360;2022-11-18T04:23:12;1.53;;;0.20;;
74421;SDS011;62856;51.446;8.360;2022-11-18T04:25:37;1.65;;;0.43;;
74421;SDS011;62856;51.446;8.360;2022-11-18T04:28:03;1.35;;;0.38;;
74421;SDS011;62856;51.446;8.360;2022-11-18T04:30:28;0.93;;;0.35;;
74421;SDS011;62856;51.446;8.360;2022-11-18T04:32:54;0.82;;;0.20;;
74421;SDS011;62856;51.446;8.360;2022-11-18T04:35:19;1.37;;;0.50;;
74421;SDS011;62856;51.446;8.360;2022-11-18T04:37:45;1.35;;;0.38;;
74421;SDS011;62856;51.446;8.360;2022-11-18T04:40:10;1.63;;;0.40;;
74421;SDS011;62856;51.446;8.360;2022-11-18T04:42:35;2.42;;;0.35;;
74421;SDS011;62856;51.446;8.360;2022-11-18T04:45:01;1.27;;;0.40;;
74421;SDS011;62856;51.446;8.360;2022-11-18T04:47:26;1.55;;;0.32;;
74421;SDS011;62856;51.446;8.360;2022-11-18T04:49:52;2.03;;;0.40;;
74421;SDS011;62856;51.446;8.360;2022-11-18T04:52:17;0.50;;;0.30;;
74421;SDS011;62856;51.446;8.360;2022-11-18T04:54:42;0.70;;;0.20;;
74421;SDS011;62856;51.446;8.360;2022-11-18T04:57:08;4.00;;;0.52;;
74421;SDS011;62856;51.446;8.360;2022-11-18T04:59:33;3.58;;;0.77;;
74421;SDS011;62856;51.446;8.360;2022-11-18T05:01:58;2.90;;;0.70;;
74421;SDS011;62856;51.446;8.360;2022-11-18T05:04:26;2.30;;;0.50;;
74421;SDS011;62856;51.446;8.360;2022-11-18T05:06:54;2.17;;;0.60;;
74421;SDS011;62856;51.446;8.360;2022-11-18T05:09:19;1.33;;;0.43;;
74421;SDS011;62856;51.446;8.360;2022-11-18T05:11:45;0.65;;;0.40;;
74421;SDS011;62856;51.446;8.360;2022-11-18T05:14:29;0.73;;;0.38;;
74421;SDS011;62856;51.446;8.360;2022-11-18T05:16:55;1.70;;;0.40;;
74421;SDS011;62856;51.446;8.360;2022-11-18T05:19:21;1.80;;;0.40;;
74421;SDS011;62856;51.446;8.360;2022-11-18T05:21:47;1.58;;;0.32;;
74421;SDS011;62856;51.446;8.360;2022-11-18T05:24:12;1.83;;;0.50;;
74421;SDS011;62856;51.446;8.360;2022-11-18T05:26:38;2.42;;;0.50;;
74421;SDS011;62856;51.446;8.360;2022-11-18T05:29:03;1.13;;;0.45;;
74421;SDS011;62856;51.446;8.360;2022-11-18T05:31:29;1.17;;;0.40;;
74421;SDS011;62856;51.446;8.360;2022-11-18T05:33:54;1.08;;;0.45;;
74421;SDS011;62856;51.446;8.360;2022-11-18T05:36:20;0.93;;;0.30;;
74421;SDS011;62856;51.446;8.360;2022-11-18T05:38:46;1.20;;;0.22;;
74421;SDS011;62856;51.446;8.360;2022-11-18T05:41:11;1.67;;;0.50;;
74421;SDS011;62856;51.446;8.360;2022-11-18T05:44:00;0.90;;;0.30;;
74421;SDS011;62856;51.446;8.360;2022-11-18T05:46:25;1.10;;;0.30;;
74421;SDS011;62856;51.446;8.360;2022-11-18T05:48:52;1.00;;;0.40;;
74421;SDS011;62856;51.446;8.360;2022-11-18T05:51:17;0.60;;;0.25;;
74421;SDS011;62856;51.446;8.360;2022-11-18T05:53:42;1.77;;;0.40;;
74421;SDS011;62856;51.446;8.360;2022-11-18T05:58:59;3.65;;;0.82;;
74421;SDS011;62856;51.446;8.360;2022-11-18T06:01:33;2.70;;;0.70;;
74421;SDS011;62856;51.446;8.360;2022-11-18T06:04:07;3.50;;;1.00;;
74421;SDS011;62856;51.446;8.360;2022-11-18T06:06:36;3.28;;;0.95;;
74421;SDS011;62856;51.446;8.360;2022-11-18T06:09:02;4.93;;;0.80;;
74421;SDS011;62856;51.446;8.360;2022-11-18T06:11:30;3.03;;;1.00;;
74421;SDS011;62856;51.446;8.360;2022-11-18T06:14:01;1.95;;;0.70;;
74421;SDS011;62856;51.446;8.360;2022-11-18T06:16:29;3.75;;;0.93;;
74421;SDS011;62856;51.446;8.360;2022-11-18T06:18:56;3.00;;;0.82;;
74421;SDS011;62856;51.446;8.360;2022-11-18T06:21:22;2.38;;;0.70;;
74421;SDS011;62856;51.446;8.360;2022-11-18T06:23:47;3.28;;;0.80;;
74421;SDS011;62856;51.446;8.360;2022-11-18T06:26:14;2.28;;;0.70;;
74421;SDS011;62856;51.446;8.360;2022-11-18T06:28:41;2.50;;;0.82;;
74421;SDS011;62856;51.446;8.360;2022-11-18T06:31:09;2.47;;;0.60;;
74421;SDS011;62856;51.446;8.360;2022-11-18T06:33:35;3.72;;;0.60;;
74421;SDS011;62856;51.446;8.360;2022-11-18T06:36:01;2.10;;;0.55;;
74421;SDS011;62856;51.446;8.360;2022-11-18T06:38:26;2.15;;;0.50;;
74421;SDS011;62856;51.446;8.360;2022-11-18T06:40:51;1.57;;;0.67;;
74421;SDS011;62856;51.446;8.360;2022-11-18T06:43:16;2.93;;;1.07;;
74421;SDS011;62856;51.446;8.360;2022-11-18T06:46:01;2.88;;;1.00;;
74421;SDS011;62856;51.446;8.360;2022-11-18T06:48:46;3.50;;;1.05;;
74421;SDS011;62856;51.446;8.360;2022-11-18T06:51:12;1.75;;;0.80;;
74421;SDS011;62856;51.446;8.360;2022-11-18T06:53:38;4.63;;;1.17;;
74421;SDS011;62856;51.446;8.360;2022-11-18T06:56:03;6.43;;;1.20;;
74421;SDS011;62856;51.446;8.360;2022-11-18T06:58:30;4.55;;;1.10;;
74421;SDS011;62856;51.446;8.360;2022-11-18T07:00:55;6.78;;;1.52;;
74421;SDS011;62856;51.446;8.360;2022-11-18T07:03:20;5.18;;;1.38;;
74421;SDS011;62856;51.446;8.360;2022-11-18T07:05:45;4.10;;;1.40;;
74421;SDS011;62856;51.446;8.360;2022-11-18T07:08:11;4.17;;;1.13;;
74421;SDS011;62856;51.446;8.360;2022-11-18T07:10:36;3.60;;;1.00;;
74421;SDS011;62856;51.446;8.360;2022-11-18T07:13:01;3.05;;;0.95;;
74421;SDS011;62856;51.446;8.360;2022-11-18T07:15:27;6.40;;;1.40;;
74421;SDS011;62856;51.446;8.360;2022-11-18T07:17:52;5.88;;;1.20;;
74421;SDS011;62856;51.446;8.360;2022-11-18T07:20:17;6.30;;;0.97;;
74421;SDS011;62856;51.446;8.360;2022-11-18T07:22:42;7.83;;;1.37;;
74421;SDS011;62856;51.446;8.360;2022-11-18T07:25:08;3.40;;;0.93;;
74421;SDS011;62856;51.446;8.360;2022-11-18T07:27:33;3.72;;;1.00;;
74421;SDS011;62856;51.446;8.360;2022-11-18T07:29:59;2.77;;;1.10;;
74421;SDS011;62856;51.446;8.360;2022-11-18T07:32:24;2.90;;;1.10;;
74421;SDS011;62856;51.446;8.360;2022-11-18T07:34:49;9.30;;;1.73;;
74421;SDS011;62856;51.446;8.360;2022-11-18T07:37:14;5.80;;;1.50;;
74421;SDS011;62856;51.446;8.360;2022-11-18T07:39:40;5.03;;;1.50;;
74421;SDS011;62856;51.446;8.360;2022-11-18T07:42:05;4.73;;;1.20;;
74421;SDS011;62856;51.446;8.360;2022-11-18T07:44:30;4.30;;;1.33;;
74421;SDS011;62856;51.446;8.360;2022-11-18T07:46:55;6.67;;;1.60;;
74421;SDS011;62856;51.446;8.360;2022-11-18T07:49:21;8.00;;;1.90;;
74421;SDS011;62856;51.446;8.360;2022-11-18T07:51:46;6.22;;;1.40;;
74421;SDS011;62856;51.446;8.360;2022-11-18T07:54:12;5.33;;;1.27;;
74421;SDS011;62856;51.446;8.360;2022-11-18T07:56:38;4.13;;;1.20;;
74421;SDS011;62856;51.446;8.360;2022-11-18T07:59:04;7.40;;;1.40;;
74421;SDS011;62856;51.446;8.360;2022-11-18T08:01:29;4.25;;;1.10;;
74421;SDS011;62856;51.446;8.360;2022-11-18T08:03:55;5.75;;;1.15;;
74421;SDS011;62856;51.446;8.360;2022-11-18T08:06:21;9.00;;;1.40;;
74421;SDS011;62856;51.446;8.360;2022-11-18T08:08:47;5.50;;;1.30;;
74421;SDS011;62856;51.446;8.360;2022-11-18T08:11:14;5.70;;;2.10;;
74421;SDS011;62856;51.446;8.360;2022-11-18T08:13:41;5.85;;;1.50;;
74421;SDS011;62856;51.446;8.360;2022-11-18T08:16:16;5.30;;;1.20;;
74421;SDS011;62856;51.446;8.360;2022-11-18T08:18:43;4.28;;;1.23;;
74421;SDS011;62856;51.446;8.360;2022-11-18T08:21:09;6.75;;;1.55;;
74421;SDS011;62856;51.446;8.360;2022-11-18T08:23:34;10.43;;;1.30;;
74421;SDS011;62856;51.446;8.360;2022-11-18T08:26:01;7.28;;;1.45;;
74421;SDS011;62856;51.446;8.360;2022-11-18T08:28:28;8.55;;;1.23;;
74421;SDS011;62856;51.446;8.360;2022-11-18T08:30:54;4.75;;;1.35;;
74421;SDS011;62856;51.446;8.360;2022-11-18T08:33:19;5.82;;;1.20;;
74421;SDS011;62856;51.446;8.360;2022-11-18T08:35:44;7.80;;;1.50;;
74421;SDS011;62856;51.446;8.360;2022-11-18T08:38:10;3.70;;;1.20;;
74421;SDS011;62856;51.446;8.360;2022-11-18T08:40:35;5.53;;;1.23;;
74421;SDS011;62856;51.446;8.360;2022-11-18T08:43:00;6.27;;;1.40;;
74421;SDS011;62856;51.446;8.360;2022-11-18T08:45:25;8.17;;;1.43;;
74421;SDS011;62856;51.446;8.360;2022-11-18T08:47:51;4.30;;;1.17;;
74421;SDS011;62856;51.446;8.360;2022-11-18T08:50:16;3.87;;;1.10;;
74421;SDS011;62856;51.446;8.360;2022-11-18T08:52:41;7.75;;;1.92;;
74421;SDS011;62856;51.446;8.360;2022-11-18T08:55:07;9.10;;;1.90;;
74421;SDS011;62856;51.446;8.360;2022-11-18T08:57:32;12.25;;;2.30;;
74421;SDS011;62856;51.446;8.360;2022-11-18T08:59:57;8.80;;;1.88;;
74421;SDS011;62856;51.446;8.360;2022-11-18T09:02:23;7.80;;;1.83;;
74421;SDS011;62856;51.446;8.360;2022-11-18T09:04:48;6.90;;;1.80;;
74421;SDS011;62856;51.446;8.360;2022-11-18T09:07:18;8.30;;;2.00;;
74421;SDS011;62856;51.446;8.360;2022-11-18T09:09:45;7.93;;;2.28;;
74421;SDS011;62856;51.446;8.360;2022-11-18T09:12:10;8.48;;;2.22;;
74421;SDS011;62856;51.446;8.360;2022-11-18T09:14:40;8.93;;;1.75;;
74421;SDS011;62856;51.446;8.360;2022-11-18T09:17:06;7.75;;;1.85;;
74421;SDS011;62856;51.446;8.360;2022-11-18T09:19:32;6.90;;;1.60;;
74421;SDS011;62856;51.446;8.360;2022-11-18T09:21:57;5.73;;;1.50;;
74421;SDS011;62856;51.446;8.360;2022-11-18T09:24:23;5.13;;;1.38;;
74421;SDS011;62856;51.446;8.360;2022-11-18T09:26:48;5.30;;;1.20;;
74421;SDS011;62856;51.446;8.360;2022-11-18T09:29:13;5.70;;;1.50;;
74421;SDS011;62856;51.446;8.360;2022-11-18T09:31:39;4.28;;;1.05;;
74421;SDS011;62856;51.446;8.360;2022-11-18T09:34:04;7.15;;;1.20;;
74421;SDS011;62856;51.446;8.360;2022-11-18T09:36:30;4.60;;;1.30;;
74421;SDS011;62856;51.446;8.360;2022-11-18T09:38:55;2.93;;;1.13;;
74421;SDS011;62856;51.446;8.360;2022-11-18T09:46:53;4.30;;;1.15;;
74421;SDS011;62856;51.446;8.360;2022-11-18T09:49:35;4.97;;;1.10;;
74421;SDS011;62856;51.446;8.360;2022-11-18T09:54:45;3.13;;;1.00;;
74421;SDS011;62856;51.446;8.360;2022-11-18T09:57:12;3.70;;;1.00;;
74421;SDS011;62856;51.446;8.360;2022-11-18T09:59:43;2.55;;;0.88;;
74421;SDS011;62856;51.446;8.360;2022-11-18T10:07:02;3.90;;;1.03;;
74421;SDS011;62856;51.446;8.360;2022-11-18T10:09:38;4.10;;;0.88;;
74421;SDS011;62856;51.446;8.360;2022-11-18T10:14:40;1.73;;;0.63;;
74421;SDS011;62856;51.446;8.360;2022-11-18T10:20:00;3.58;;;0.80;;
74421;SDS011;62856;51.446;8.360;2022-11-18T10:22:52;3.85;;;0.80;;
74421;SDS011;62856;51.446;8.360;2022-11-18T10:25:20;3.25;;;1.08;;
74421;SDS011;62856;51.446;8.360;2022-11-18T10:27:46;2.55;;;0.88;;
74421;SDS011;62856;51.446;8.360;2022-11-18T10:32:53;2.40;;;0.80;;
74421;SDS011;62856;51.446;8.360;2022-11-18T10:35:24;2.67;;;0.80;;
74421;SDS011;62856;51.446;8.360;2022-11-18T10:37:58;2.97;;;0.90;;
74421;SDS011;62856;51.446;8.360;2022-11-18T10:40:28;2.30;;;0.80;;
74421;SDS011;62856;51.446;8.360;2022-11-18T10:42:54;2.47;;;0.73;;
74421;SDS011;62856;51.446;8.360;2022-11-18T10:50:39;1.73;;;0.60;;
74421;SDS011;62856;51.446;8.360;2022-11-18T10:53:35;2.33;;;0.75;;
74421;SDS011;62856;51.446;8.360;2022-11-18T10:56:05;2.72;;;0.95;;
74421;SDS011;62856;51.446;8.360;2022-11-18T10:58:35;3.28;;;0.90;;
74421;SDS011;62856;51.446;8.360;2022-11-18T11:01:26;2.30;;;0.60;;
74421;SDS011;62856;51.446;8.360;2022-11-18T11:03:56;2.05;;;0.70;;
74421;SDS011;62856;51.446;8.360;2022-11-18T11:06:46;1.95;;;0.60;;
74421;SDS011;62856;51.446;8.360;2022-11-18T11:11:40;3.35;;;0.77;;
74421;SDS011;62856;51.446;8.360;2022-11-18T11:17:17;2.78;;;0.80;;
74421;SDS011;62856;51.446;8.360;2022-11-18T11:19:58;2.40;;;0.88;;
74421;SDS011;62856;51.446;8.360;2022-11-18T11:22:36;2.35;;;0.85;;
74421;SDS011;62856;51.446;8.360;2022-11-18T11:25:01;2.93;;;1.07;;
74421;SDS011;62856;51.446;8.360;2022-11-18T11:27:37;3.60;;;1.00;;
74421;SDS011;62856;51.446;8.360;2022-11-18T11:30:12;2.20;;;0.60;;
74421;SDS011;62856;51.446;8.360;2022-11-18T11:35:46;3.03;;;0.90;;
74421;SDS011;62856;51.446;8.360;2022-11-18T11:41:59;4.00;;;1.10;;
74421;SDS011;62856;51.446;8.360;2022-11-18T11:44:44;4.38;;;1.10;;
74421;SDS011;62856;51.446;8.360;2022-11-18T11:50:28;4.60;;;1.20;;
74421;SDS011;62856;51.446;8.360;2022-11-18T12:07:02;5.88;;;1.58;;
74421;SDS011;62856;51.446;8.360;2022-11-18T12:14:50;4.97;;;1.15;;
74421;SDS011;62856;51.446;8.360;2022-11-18T12:17:23;4.30;;;1.38;;
74421;SDS011;62856;51.446;8.360;2022-11-18T12:19:56;6.03;;;1.70;;
74421;SDS011;62856;51.446;8.360;2022-11-18T12:22:21;5.50;;;1.33;;
74421;SDS011;62856;51.446;8.360;2022-11-18T12:24:47;5.05;;;1.73;;
74421;SDS011;62856;51.446;8.360;2022-11-18T12:27:13;6.85;;;1.92;;
74421;SDS011;62856;51.446;8.360;2022-11-18T12:29:59;7.57;;;1.52;;
74421;SDS011;62856;51.446;8.360;2022-11-18T12:37:39;5.00;;;1.52;;
74421;SDS011;62856;51.446;8.360;2022-11-18T12:40:33;3.90;;;1.38;;
74421;SDS011;62856;51.446;8.360;2022-11-18T12:42:59;4.30;;;1.50;;
74421;SDS011;62856;51.446;8.360;2022-11-18T12:50:48;6.60;;;1.55;;
74421;SDS011;62856;51.446;8.360;2022-11-18T12:55:57;4.75;;;1.15;;
74421;SDS011;62856;51.446;8.360;2022-11-18T12:58:23;4.25;;;1.33;;
74421;SDS011;62856;51.446;8.360;2022-11-18T13:00:49;4.20;;;1.33;;
74421;SDS011;62856;51.446;8.360;2022-11-18T13:05:48;6.35;;;1.20;;
74421;SDS011;62856;51.446;8.360;2022-11-18T13:08:14;4.03;;;1.00;;
74421;SDS011;62856;51.446;8.360;2022-11-18T13:13:28;5.88;;;1.50;;
74421;SDS011;62856;51.446;8.360;2022-11-18T13:15:56;5.47;;;1.45;;
74421;SDS011;62856;51.446;8.360;2022-11-18T13:18:54;4.32;;;1.40;;
74421;SDS011;62856;51.446;8.360;2022-11-18T13:21:24;5.03;;;1.30;;
74421;SDS011;62856;51.446;8.360;2022-11-18T13:24:11;2.40;;;0.82;;
74421;SDS011;62856;51.446;8.360;2022-11-18T13:26:38;3.47;;;1.23;;
74421;SDS011;62856;51.446;8.360;2022-11-18T13:32:00;5.10;;;1.52;;
74421;SDS011;62856;51.446;8.360;2022-11-18T13:34:50;4.47;;;1.40;;
74421;SDS011;62856;51.446;8.360;2022-11-18T13:37:18;5.40;;;1.30;;
74421;SDS011;62856;51.446;8.360;2022-11-18T13:39:46;5.38;;;1.65;;
74421;SDS011;62856;51.446;8.360;2022-11-18T13:42:14;5.28;;;1.83;;
74421;SDS011;62856;51.446;8.360;2022-11-18T13:45:23;3.75;;;1.20;;
74421;SDS011;62856;51.446;8.360;2022-11-18T13:52:38;3.43;;;1.10;;
74421;SDS011;62856;51.446;8.360;2022-11-18T13:55:15;5.28;;;1.50;;
74421;SDS011;62856;51.446;8.360;2022-11-18T13:57:44;3.67;;;1.13;;
74421;SDS011;62856;51.446;8.360;2022-11-18T14:00:19;4.75;;;1.40;;
74421;SDS011;62856;51.446;8.360;2022-11-18T14:02:48;3.08;;;1.00;;
74421;SDS011;62856;51.446;8.360;2022-11-18T14:05:20;4.93;;;1.40;;
74421;SDS011;62856;51.446;8.360;2022-11-18T14:07:56;4.30;;;1.40;;
74421;SDS011;62856;51.446;8.360;2022-11-18T14:10:31;4.18;;;1.10;;
74421;SDS011;62856;51.446;8.360;2022-11-18T14:13:15;4.10;;;1.23;;
74421;SDS011;62856;51.446;8.360;2022-11-18T14:15:48;4.88;;;1.38;;
74421;SDS011;62856;51.446;8.360;2022-11-18T14:18:18;4.45;;;1.20;;
74421;SDS011;62856;51.446;8.360;2022-11-18T14:20:51;4.03;;;1.20;;
74421;SDS011;62856;51.446;8.360;2022-11-18T14:23:18;4.28;;;1.17;;
74421;SDS011;62856;51.446;8.360;2022-11-18T14:25:51;3.45;;;1.27;;
74421;SDS011;62856;51.446;8.360;2022-11-18T14:30:41;5.63;;;1.50;;
74421;SDS011;62856;51.446;8.360;2022-11-18T14:33:21;4.45;;;1.45;;
74421;SDS011;62856;51.446;8.360;2022-11-18T14:35:57;3.08;;;1.20;;
74421;SDS011;62856;51.446;8.360;2022-11-18T14:41:00;4.38;;;1.50;;
74421;SDS011;62856;51.446;8.360;2022-11-18T14:43:27;4.30;;;1.60;;
74421;SDS011;62856;51.446;8.360;2022-11-18T14:45:54;4.65;;;1.38;;
74421;SDS011;62856;51.446;8.360;2022-11-18T14:48:22;5.07;;;1.55;;
74421;SDS011;62856;51.446;8.360;2022-11-18T14:50:50;3.60;;;1.20;;
74421;SDS011;62856;51.446;8.360;2022-11-18T14:53:16;5.43;;;1.80;;
74421;SDS011;62856;51.446;8.360;2022-11-18T14:55:42;5.53;;;1.67;;
74421;SDS011;62856;51.446;8.360;2022-11-18T14:58:11;7.57;;;2.15;;
74421;SDS011;62856;51.446;8.360;2022-11-18T15:00:38;7.38;;;2.17;;
74421;SDS011;62856;51.446;8.360;2022-11-18T15:03:04;9.35;;;2.35;;
74421;SDS011;62856;51.446;8.360;2022-11-18T15:05:29;7.23;;;2.10;;
74421;SDS011;62856;51.446;8.360;2022-11-18T15:07:55;6.65;;;2.05;;
74421;SDS011;62856;51.446;8.360;2022-11-18T15:10:20;7.93;;;1.90;;
74421;SDS011;62856;51.446;8.360;2022-11-18T15:12:46;6.35;;;2.15;;
74421;SDS011;62856;51.446;8.360;2022-11-18T15:15:11;6.70;;;2.00;;
74421;SDS011;62856;51.446;8.360;2022-11-18T15:17:37;7.82;;;2.05;;
74421;SDS011;62856;51.446;8.360;2022-11-18T15:20:03;5.25;;;1.55;;
74421;SDS011;62856;51.446;8.360;2022-11-18T15:22:28;5.93;;;1.70;;
74421;SDS011;62856;51.446;8.360;2022-11-18T15:24:54;5.57;;;1.90;;
74421;SDS011;62856;51.446;8.360;2022-11-18T15:27:19;4.80;;;1.50;;
74421;SDS011;62856;51.446;8.360;2022-11-18T15:29:44;5.10;;;1.60;;
74421;SDS011;62856;51.446;8.360;2022-11-18T15:32:09;4.50;;;1.40;;
74421;SDS011;62856;51.446;8.360;2022-11-18T15:34:35;6.33;;;1.90;;
74421;SDS011;62856;51.446;8.360;2022-11-18T15:37:00;6.20;;;1.93;;
74421;SDS011;62856;51.446;8.360;2022-11-18T15:39:25;3.87;;;1.20;;
74421;SDS011;62856;51.446;8.360;2022-11-18T15:41:51;5.28;;;1.35;;
74421;SDS011;62856;51.446;8.360;2022-11-18T15:44:16;5.27;;;1.50;;
74421;SDS011;62856;51.446;8.360;2022-11-18T15:46:41;5.43;;;1.60;;
74421;SDS011;62856;51.446;8.360;2022-11-18T15:49:11;5.28;;;1.60;;
74421;SDS011;62856;51.446;8.360;2022-11-18T15:51:37;5.53;;;1.67;;
74421;SDS011;62856;51.446;8.360;2022-11-18T15:54:04;4.72;;;1.70;;
74421;SDS011;62856;51.446;8.360;2022-11-18T15:56:29;6.43;;;1.83;;
74421;SDS011;62856;51.446;8.360;2022-11-18T15:58:57;5.22;;;1.65;;
74421;SDS011;62856;51.446;8.360;2022-11-18T16:01:23;6.32;;;1.92;;
74421;SDS011;62856;51.446;8.360;2022-11-18T16:03:50;5.78;;;1.90;;
74421;SDS011;62856;51.446;8.360;2022-11-18T16:06:15;6.28;;;1.75;;
74421;SDS011;62856;51.446;8.360;2022-11-18T16:08:41;5.80;;;1.92;;
74421;SDS011;62856;51.446;8.360;2022-11-18T16:11:08;5.70;;;1.83;;
74421;SDS011;62856;51.446;8.360;2022-11-18T16:14:06;7.63;;;2.15;;
74421;SDS011;62856;51.446;8.360;2022-11-18T16:16:33;6.03;;;1.63;;
74421;SDS011;62856;51.446;8.360;2022-11-18T16:19:00;8.20;;;2.20;;
74421;SDS011;62856;51.446;8.360;2022-11-18T16:21:27;5.50;;;1.90;;
74421;SDS011;62856;51.446;8.360;2022-11-18T16:23:54;5.35;;;1.65;;
74421;SDS011;62856;51.446;8.360;2022-11-18T16:26:20;5.90;;;1.85;;
74421;SDS011;62856;51.446;8.360;2022-11-18T16:28:45;6.28;;;1.73;;
74421;SDS011;62856;51.446;8.360;2022-11-18T16:31:10;5.80;;;1.80;;
74421;SDS011;62856;51.446;8.360;2022-11-18T16:33:54;7.20;;;1.88;;
74421;SDS011;62856;51.446;8.360;2022-11-18T16:36:26;6.53;;;2.00;;
74421;SDS011;62856;51.446;8.360;2022-11-18T16:38:51;6.18;;;2.13;;
74421;SDS011;62856;51.446;8.360;2022-11-18T16:41:17;7.30;;;2.55;;
74421;SDS011;62856;51.446;8.360;2022-11-18T16:44:02;6.35;;;2.15;;
74421;SDS011;62856;51.446;8.360;2022-11-18T16:46:29;5.45;;;1.77;;
74421;SDS011;62856;51.446;8.360;2022-11-18T16:48:56;8.05;;;2.50;;
74421;SDS011;62856;51.446;8.360;2022-11-18T16:51:22;6.57;;;2.25;;
74421;SDS011;62856;51.446;8.360;2022-11-18T16:53:56;6.68;;;2.10;;
74421;SDS011;62856;51.446;8.360;2022-11-18T16:56:24;6.00;;;1.88;;
74421;SDS011;62856;51.446;8.360;2022-11-18T16:58:54;6.68;;;2.22;;
74421;SDS011;62856;51.446;8.360;2022-11-18T17:01:22;7.05;;;2.47;;